Scott Bar, California
Current Conditions -  °F | °C
As of 11:53 PM on Thursday 27 Nov 2014 (Local Time) from KSIY Reporting Station
Clear Clear  
Wind Chill: 35°   Ceiling: Unl
Heat Index: 41°   Visibility: 10mi
Dew Point: 33°   Wind: 9mph
Humidity: 73%   Direction: 40°NE
Pressure: 29.98"   Gusts: NA
Location:  41.74°N, 123°W
Report Text: KSIY 280753Z AUTO 04008KT 10SM CLR 05/01 A2998 RMK AO2 SLP159 T00500006 401560000
Loading
Personal Weather Stations






























Interactive Weather Map New forecast layout! Learn more

10-Day Weather Forecast

Advertisements
Track Severe Weather on mobile